createdAt,value
2019-06-20T00:00:16.837Z,25.20
2019-06-20T00:03:04.255Z,25.10
2019-06-20T00:05:51.621Z,25.00
2019-06-20T00:08:39.764Z,25.20
2019-06-20T00:11:27.087Z,25.10
2019-06-20T00:14:14.247Z,25.20
2019-06-20T00:17:01.743Z,25.10
2019-06-20T00:19:49.154Z,25.10
2019-06-20T00:22:36.410Z,25.00
2019-06-20T00:25:23.049Z,25.00
2019-06-20T00:28:09.988Z,25.00
2019-06-20T00:30:59.339Z,25.00
2019-06-20T00:33:46.371Z,24.90
2019-06-20T00:36:33.166Z,24.80
2019-06-20T00:39:20.719Z,24.70
2019-06-20T00:42:07.815Z,24.60
2019-06-20T00:44:54.844Z,24.50
2019-06-20T00:47:42.427Z,24.50
2019-06-20T00:50:29.473Z,24.30
2019-06-20T00:53:16.548Z,24.00
2019-06-20T00:56:05.577Z,23.70
2019-06-20T00:58:52.827Z,23.30
2019-06-20T01:01:39.658Z,23.10
2019-06-20T01:04:26.442Z,23.10
2019-06-20T01:07:13.763Z,23.00
2019-06-20T01:10:00.794Z,22.90
2019-06-20T01:12:47.870Z,22.80
2019-06-20T01:15:34.968Z,22.80
2019-06-20T01:18:22.061Z,22.80
2019-06-20T01:21:09.345Z,22.90
2019-06-20T01:23:56.650Z,22.90
2019-06-20T01:26:43.839Z,22.90
2019-06-20T01:29:30.967Z,22.80
2019-06-20T01:32:17.761Z,23.00
2019-06-20T01:35:09.291Z,22.90
2019-06-20T01:37:56.525Z,22.90
2019-06-20T01:40:43.880Z,22.80
2019-06-20T01:43:30.999Z,22.80
2019-06-20T01:46:18.162Z,22.80
2019-06-20T01:49:05.860Z,22.80
2019-06-20T01:51:52.935Z,22.70
2019-06-20T01:54:40.218Z,22.70
2019-06-20T01:57:27.745Z,22.70
2019-06-20T02:00:17.872Z,22.60
2019-06-20T02:03:10.975Z,22.50
2019-06-20T02:05:58.264Z,22.50
2019-06-20T02:08:45.087Z,22.40
2019-06-20T02:11:32.383Z,22.30
2019-06-20T02:14:19.428Z,22.10
2019-06-20T02:17:06.540Z,22.00
2019-06-20T02:19:53.745Z,22.00
2019-06-20T02:22:40.794Z,22.00
2019-06-20T02:25:28.031Z,22.10
2019-06-20T02:28:15.363Z,22.10
2019-06-20T02:31:02.723Z,21.90
2019-06-20T02:33:51.898Z,21.50
2019-06-20T02:36:39.033Z,21.30
2019-06-20T02:39:26.102Z,21.30
2019-06-20T02:42:13.446Z,21.20
2019-06-20T02:45:00.871Z,21.10
2019-06-20T02:47:47.702Z,21.00
2019-06-20T02:50:34.936Z,20.90
2019-06-20T02:53:21.802Z,20.70
2019-06-20T02:56:08.636Z,20.70
2019-06-20T02:58:56.022Z,20.60
2019-06-20T03:01:43.131Z,20.70
2019-06-20T03:04:30.282Z,20.60
2019-06-20T03:07:17.182Z,20.60
2019-06-20T03:10:07.774Z,20.60
2019-06-20T03:12:54.575Z,20.50
2019-06-20T03:15:42.541Z,20.50
2019-06-20T03:18:29.847Z,20.30
2019-06-20T03:21:17.131Z,20.20
2019-06-20T03:24:04.625Z,20.20
2019-06-20T03:26:51.546Z,20.20
2019-06-20T03:29:39.005Z,20.20
2019-06-20T03:32:26.192Z,20.20
2019-06-20T03:35:13.593Z,20.10
2019-06-20T03:38:00.491Z,20.00
2019-06-20T03:40:47.532Z,19.90
2019-06-20T03:43:34.990Z,19.90
2019-06-20T03:46:22.183Z,19.90
2019-06-20T03:49:09.247Z,19.90
2019-06-20T03:51:59.370Z,19.80
2019-06-20T03:54:46.691Z,19.70
2019-06-20T03:57:33.806Z,19.60
2019-06-20T04:00:23.324Z,19.60
2019-06-20T04:03:10.474Z,19.60
2019-06-20T04:05:57.318Z,19.60
2019-06-20T04:08:44.846Z,19.70
2019-06-20T04:11:31.902Z,19.70
2019-06-20T04:14:18.974Z,19.60
2019-06-20T04:17:06.441Z,19.60
2019-06-20T04:19:53.747Z,19.70
2019-06-20T04:22:40.797Z,19.60
2019-06-20T04:25:30.495Z,19.70
2019-06-20T04:28:17.882Z,19.70
2019-06-20T04:31:05.438Z,19.70
2019-06-20T04:33:51.402Z,19.70
2019-06-20T04:36:38.751Z,19.70
2019-06-20T04:39:26.175Z,19.70
2019-06-20T04:42:12.938Z,19.70
2019-06-20T04:45:01.629Z,19.70
2019-06-20T04:47:48.737Z,19.70
2019-06-20T04:50:37.399Z,19.80
2019-06-20T04:53:24.587Z,19.90
2019-06-20T04:56:11.894Z,20.00
2019-06-20T04:58:59.089Z,20.10
2019-06-20T05:01:46.178Z,20.20
2019-06-20T05:04:34.759Z,20.40
2019-06-20T05:07:21.933Z,20.50
2019-06-20T05:10:08.966Z,20.60
2019-06-20T05:12:56.244Z,20.70
2019-06-20T05:15:52.447Z,20.60
2019-06-20T05:18:32.427Z,20.50
2019-06-20T05:21:22.362Z,20.30
2019-06-20T05:24:08.657Z,20.30
2019-06-20T05:26:55.727Z,20.30
2019-06-20T05:29:45.756Z,20.20
2019-06-20T05:32:33.018Z,20.20
2019-06-20T05:35:20.364Z,20.20
2019-06-20T05:38:14.930Z,20.20
2019-06-20T05:41:01.894Z,20.40
2019-06-20T05:43:49.268Z,20.40
2019-06-20T05:46:36.109Z,20.40
2019-06-20T05:49:23.211Z,20.60
2019-06-20T05:52:10.175Z,20.60
2019-06-20T05:54:57.755Z,20.60
2019-06-20T05:57:44.665Z,20.70
2019-06-20T06:00:31.740Z,20.70
2019-06-20T06:03:21.838Z,20.70
2019-06-20T06:06:09.005Z,20.70
2019-06-20T06:08:56.179Z,20.80
2019-06-20T06:11:43.389Z,20.90
2019-06-20T06:14:31.528Z,21.00
2019-06-20T06:17:18.678Z,21.00
2019-06-20T06:20:08.679Z,21.00
2019-06-20T06:22:56.048Z,21.10
2019-06-20T06:25:42.910Z,21.20
2019-06-20T06:28:43.498Z,21.30
2019-06-20T06:31:30.606Z,21.30
2019-06-20T06:34:17.806Z,21.30
2019-06-20T06:37:05.087Z,21.50
2019-06-20T06:39:53.141Z,21.70
2019-06-20T06:42:39.783Z,21.90
2019-06-20T06:45:27.178Z,21.90
2019-06-20T06:48:13.974Z,22.10
2019-06-20T06:51:00.984Z,22.30
2019-06-20T06:53:47.913Z,22.30
2019-06-20T06:56:35.098Z,22.50
2019-06-20T06:59:22.301Z,22.60
2019-06-20T07:02:09.050Z,22.50
2019-06-20T07:04:54.903Z,22.50
2019-06-20T07:07:41.852Z,22.40
2019-06-20T07:10:29.613Z,22.40
2019-06-20T07:13:16.951Z,22.30
2019-06-20T07:16:04.669Z,22.40
2019-06-20T07:18:52.822Z,22.40
2019-06-20T07:21:39.871Z,22.50
2019-06-20T07:24:26.731Z,22.60
2019-06-20T07:27:13.855Z,22.70
2019-06-20T07:30:01.140Z,22.70
2019-06-20T07:32:47.983Z,22.70
2019-06-20T07:35:33.811Z,22.80
2019-06-20T07:38:20.907Z,22.80
2019-06-20T07:41:07.735Z,22.80
2019-06-20T07:43:54.614Z,22.90
2019-06-20T07:46:41.693Z,23.00
2019-06-20T07:49:28.731Z,22.80
2019-06-20T07:52:15.636Z,22.80
2019-06-20T07:55:03.281Z,22.80
2019-06-20T07:57:50.590Z,22.90
2019-06-20T08:00:37.545Z,23.00
2019-06-20T08:03:24.700Z,23.20
2019-06-20T08:06:11.768Z,23.30
2019-06-20T08:08:58.447Z,23.40
2019-06-20T08:11:45.590Z,23.40
2019-06-20T08:14:32.511Z,23.70
2019-06-20T08:17:34.369Z,24.00
2019-06-20T08:20:08.840Z,24.00
2019-06-20T08:22:55.706Z,24.00
2019-06-20T08:25:42.373Z,23.80
2019-06-20T08:28:29.334Z,23.90
2019-06-20T08:31:16.342Z,23.90
2019-06-20T08:34:04.422Z,24.10
2019-06-20T08:36:51.846Z,24.00
2019-06-20T08:39:39.271Z,24.00
2019-06-20T08:42:26.414Z,24.10
2019-06-20T08:45:14.439Z,24.10
2019-06-20T08:48:07.851Z,24.30
2019-06-20T08:50:56.832Z,24.30
2019-06-20T08:54:01.078Z,24.60
2019-06-20T08:56:48.113Z,24.90
2019-06-20T08:59:58.883Z,24.90
2019-06-20T09:02:45.784Z,24.60
2019-06-20T09:05:32.923Z,24.70
2019-06-20T09:08:19.762Z,24.80
2019-06-20T09:11:11.328Z,25.00
2019-06-20T09:13:59.234Z,25.20
2019-06-20T09:16:47.511Z,25.50
2019-06-20T09:19:34.374Z,25.30
2019-06-20T09:22:20.959Z,25.30
2019-06-20T09:25:10.601Z,25.10
2019-06-20T09:27:58.283Z,25.30
2019-06-20T09:30:57.131Z,25.30
2019-06-20T09:33:44.647Z,25.40
2019-06-20T09:36:31.693Z,25.40
2019-06-20T09:39:18.339Z,25.30
2019-06-20T09:42:15.210Z,25.50
2019-06-20T09:45:02.957Z,25.70
2019-06-20T09:47:50.969Z,25.80
2019-06-20T09:50:38.699Z,25.60
2019-06-20T09:53:25.599Z,25.60
2019-06-20T09:56:12.535Z,25.50
2019-06-20T09:58:59.293Z,25.60
2019-06-20T10:01:47.614Z,25.90
2019-06-20T10:04:34.633Z,26.30
2019-06-20T10:07:21.579Z,26.20
2019-06-20T10:10:10.891Z,26.00
2019-06-20T10:12:58.420Z,26.00
2019-06-20T10:15:46.675Z,26.00
2019-06-20T10:18:34.025Z,26.00
2019-06-20T10:21:21.309Z,26.40
2019-06-20T10:24:08.451Z,26.90
2019-06-20T10:26:55.547Z,27.10
2019-06-20T10:29:42.598Z,27.10
2019-06-20T10:32:29.630Z,26.50
2019-06-20T10:35:17.088Z,26.40
2019-06-20T10:38:03.837Z,26.60
2019-06-20T10:40:50.419Z,26.60
2019-06-20T10:43:37.490Z,26.90
2019-06-20T10:46:24.428Z,27.40
2019-06-20T10:49:11.537Z,27.90
2019-06-20T10:51:58.163Z,28.30
2019-06-20T10:54:45.342Z,28.30
2019-06-20T10:57:32.284Z,28.30
2019-06-20T11:00:30.283Z,28.10
2019-06-20T11:03:08.032Z,27.80
2019-06-20T11:05:55.480Z,27.90
2019-06-20T11:08:43.278Z,27.70
2019-06-20T11:11:31.927Z,27.60
2019-06-20T11:14:18.563Z,27.80
2019-06-20T11:17:05.925Z,27.90
2019-06-20T11:20:03.111Z,28.20
2019-06-20T11:22:50.231Z,28.00
2019-06-20T11:25:38.342Z,27.80
2019-06-20T11:28:26.214Z,27.80
2019-06-20T11:31:13.101Z,27.90
2019-06-20T11:34:01.792Z,27.60
2019-06-20T11:36:48.810Z,27.40
2019-06-20T11:39:37.310Z,27.30
2019-06-20T11:42:24.430Z,27.60
2019-06-20T11:45:13.302Z,27.70
2019-06-20T11:48:00.326Z,27.70
2019-06-20T11:50:47.249Z,27.30
2019-06-20T11:53:40.656Z,27.30
2019-06-20T11:56:29.518Z,27.10
2019-06-20T11:59:17.070Z,26.90
2019-06-20T12:02:03.952Z,26.70
2019-06-20T12:04:51.527Z,26.40
2019-06-20T12:07:41.090Z,25.60
2019-06-20T12:10:27.279Z,24.00
2019-06-20T12:13:14.471Z,22.70
2019-06-20T12:16:01.751Z,22.10
2019-06-20T12:18:49.478Z,21.90
2019-06-20T12:21:36.147Z,22.00
2019-06-20T12:24:21.988Z,22.10
2019-06-20T12:27:09.193Z,22.40
2019-06-20T12:29:56.358Z,22.60
2019-06-20T12:32:44.689Z,23.10
2019-06-20T12:35:31.547Z,23.50
2019-06-20T12:38:18.458Z,23.90
2019-06-20T12:41:04.270Z,24.10
2019-06-20T12:43:50.912Z,24.10
2019-06-20T12:46:39.344Z,24.30
2019-06-20T12:49:26.116Z,24.40
2019-06-20T12:52:13.263Z,24.70
2019-06-20T12:55:00.646Z,24.90
2019-06-20T12:57:48.541Z,24.90
2019-06-20T13:00:37.648Z,25.00
2019-06-20T13:03:24.510Z,25.20
2019-06-20T13:06:11.406Z,25.30
2019-06-20T13:08:58.665Z,25.50
2019-06-20T13:11:45.256Z,25.70
2019-06-20T13:14:32.507Z,25.90
2019-06-20T13:17:19.623Z,26.00
2019-06-20T13:20:07.241Z,26.10
2019-06-20T13:22:54.679Z,26.10
2019-06-20T13:25:42.513Z,25.70
2019-06-20T13:28:29.988Z,25.40
2019-06-20T13:31:17.063Z,25.00
2019-06-20T13:34:03.894Z,25.00
2019-06-20T13:36:51.092Z,24.90
2019-06-20T13:39:38.468Z,25.00
2019-06-20T13:42:26.786Z,25.30
2019-06-20T13:45:22.454Z,25.60
2019-06-20T13:48:09.796Z,25.90
2019-06-20T13:50:57.036Z,26.20
2019-06-20T13:53:44.281Z,26.20
2019-06-20T13:56:31.291Z,26.40
2019-06-20T13:59:18.225Z,26.40
2019-06-20T14:02:07.059Z,26.50
2019-06-20T14:04:53.765Z,26.70
2019-06-20T14:07:46.651Z,26.60
2019-06-20T14:10:29.264Z,26.60
2019-06-20T14:13:19.550Z,26.60
2019-06-20T14:16:05.203Z,26.80
2019-06-20T14:18:52.188Z,27.10
2019-06-20T14:21:39.641Z,27.30
2019-06-20T14:24:26.502Z,27.60
2019-06-20T14:27:13.681Z,27.90
2019-06-20T14:30:00.777Z,28.00
2019-06-20T14:32:49.451Z,27.60
2019-06-20T14:35:36.617Z,27.20
2019-06-20T14:38:25.600Z,26.70
2019-06-20T14:41:12.340Z,26.60
2019-06-20T14:43:59.601Z,26.40
2019-06-20T14:46:46.536Z,26.30
2019-06-20T14:49:33.411Z,26.20
2019-06-20T14:52:20.246Z,26.00
2019-06-20T14:55:07.912Z,25.90
2019-06-20T14:57:54.999Z,25.70
2019-06-20T15:00:44.750Z,24.80
2019-06-20T15:03:31.875Z,23.60
2019-06-20T15:06:19.127Z,22.40
2019-06-20T15:09:07.467Z,21.50
2019-06-20T15:11:55.081Z,20.90
2019-06-20T15:14:42.459Z,20.70
2019-06-20T15:17:29.947Z,20.70
2019-06-20T15:20:18.057Z,20.90
2019-06-20T15:23:05.069Z,21.00
2019-06-20T15:25:52.268Z,21.20
2019-06-20T15:28:39.733Z,21.60
2019-06-20T15:31:26.877Z,21.70
2019-06-20T15:34:12.782Z,22.00
2019-06-20T15:36:59.581Z,22.40
2019-06-20T15:39:48.097Z,22.90
2019-06-20T15:42:35.831Z,23.60
2019-06-20T15:45:22.739Z,24.10
2019-06-20T15:48:10.017Z,24.60
2019-06-20T15:50:56.926Z,25.10
2019-06-20T15:53:43.930Z,25.60
2019-06-20T15:56:32.157Z,25.70
2019-06-20T15:59:18.788Z,26.40
2019-06-20T16:02:06.679Z,26.70
2019-06-20T16:04:53.984Z,27.00
2019-06-20T16:07:40.971Z,27.10
2019-06-20T16:10:28.242Z,27.60
2019-06-20T16:13:15.509Z,27.60
2019-06-20T16:16:02.682Z,27.80
2019-06-20T16:18:49.912Z,27.80
2019-06-20T16:21:36.927Z,28.10
2019-06-20T16:24:24.097Z,28.70
2019-06-20T16:27:11.140Z,28.30
2019-06-20T16:29:59.103Z,28.40
2019-06-20T16:32:46.034Z,28.40
2019-06-20T16:35:33.217Z,28.60
2019-06-20T16:38:20.297Z,28.70
2019-06-20T16:41:06.965Z,28.70
2019-06-20T16:43:54.325Z,28.70
2019-06-20T16:46:41.287Z,27.80
2019-06-20T16:49:27.898Z,27.60
2019-06-20T16:52:14.980Z,27.60
2019-06-20T16:55:02.246Z,27.60
2019-06-20T16:57:49.512Z,28.00
2019-06-20T17:00:36.568Z,28.40
2019-06-20T17:03:40.507Z,28.50
2019-06-20T17:06:12.254Z,29.10
2019-06-20T17:08:59.251Z,28.90
2019-06-20T17:11:46.203Z,28.90
2019-06-20T17:14:33.389Z,28.60
2019-06-20T17:17:20.368Z,28.50
2019-06-20T17:20:08.078Z,28.60
2019-06-20T17:22:55.162Z,28.00
2019-06-20T17:25:42.462Z,27.90
2019-06-20T17:28:29.582Z,28.30
2019-06-20T17:31:16.504Z,28.40
2019-06-20T17:34:03.737Z,28.70
2019-06-20T17:36:50.563Z,28.80
2019-06-20T17:39:37.663Z,28.80
2019-06-20T17:42:24.674Z,29.00
2019-06-20T17:45:12.588Z,29.10
2019-06-20T17:47:59.781Z,29.50
2019-06-20T17:50:46.509Z,29.90
2019-06-20T17:53:33.583Z,30.10
2019-06-20T17:56:20.687Z,30.40
2019-06-20T17:59:07.699Z,30.40
2019-06-20T18:01:54.958Z,30.30
2019-06-20T18:04:41.679Z,29.90
2019-06-20T18:07:28.621Z,29.40
2019-06-20T18:10:16.554Z,28.80
2019-06-20T18:13:03.432Z,28.50
2019-06-20T18:15:51.023Z,27.70
2019-06-20T18:18:38.075Z,27.50
2019-06-20T18:21:25.190Z,26.90
2019-06-20T18:24:12.020Z,26.40
2019-06-20T18:26:59.053Z,25.90
2019-06-20T18:29:46.198Z,25.60
2019-06-20T18:32:33.299Z,25.20
2019-06-20T18:35:19.996Z,24.70
2019-06-20T18:38:07.124Z,24.40
2019-06-20T18:40:54.247Z,24.10
2019-06-20T18:43:41.151Z,23.90
2019-06-20T18:46:28.150Z,23.80
2019-06-20T18:49:15.201Z,23.80
2019-06-20T18:52:02.137Z,23.80
2019-06-20T18:54:49.239Z,23.80
2019-06-20T18:57:36.078Z,23.90
2019-06-20T19:00:34.079Z,23.80
2019-06-20T19:03:12.944Z,23.80
2019-06-20T19:06:00.070Z,23.60
2019-06-20T19:08:47.107Z,23.70
2019-06-20T19:11:34.719Z,23.60
2019-06-20T19:14:21.977Z,23.50
2019-06-20T19:17:09.313Z,23.50
2019-06-20T19:19:56.370Z,23.50
2019-06-20T19:22:43.627Z,23.40
2019-06-20T19:25:30.910Z,23.30
2019-06-20T19:28:17.993Z,23.10
2019-06-20T19:31:05.326Z,23.00
2019-06-20T19:33:52.550Z,23.00
2019-06-20T19:36:39.816Z,22.80
2019-06-20T19:39:28.727Z,22.60
2019-06-20T19:42:15.824Z,22.40
2019-06-20T19:45:10.523Z,22.40
2019-06-20T19:47:57.622Z,22.30
2019-06-20T19:50:45.889Z,22.30
2019-06-20T19:53:32.591Z,22.20
2019-06-20T19:56:19.783Z,22.10
2019-06-20T19:59:06.593Z,22.10
2019-06-20T20:01:53.749Z,22.00
2019-06-20T20:04:40.859Z,22.00
2019-06-20T20:07:28.148Z,21.90
2019-06-20T20:10:17.771Z,22.00
2019-06-20T20:13:04.775Z,21.90
2019-06-20T20:15:51.907Z,21.80
2019-06-20T20:18:39.290Z,21.80
2019-06-20T20:21:26.685Z,21.70
2019-06-20T20:24:14.236Z,21.60
2019-06-20T20:27:00.975Z,21.40
2019-06-20T20:29:47.721Z,21.30
2019-06-20T20:32:34.611Z,21.30
2019-06-20T20:35:35.001Z,21.30
2019-06-20T20:38:09.985Z,21.30
2019-06-20T20:40:57.234Z,21.30
2019-06-20T20:43:44.396Z,21.30
2019-06-20T20:46:31.427Z,21.30
2019-06-20T20:49:18.526Z,21.20
2019-06-20T20:52:06.006Z,21.10
2019-06-20T20:54:52.943Z,21.00
2019-06-20T20:57:40.278Z,21.00
2019-06-20T21:00:33.155Z,21.00
2019-06-20T21:03:20.202Z,21.00
2019-06-20T21:06:07.577Z,21.00
2019-06-20T21:08:54.337Z,21.00
2019-06-20T21:11:41.083Z,21.00
2019-06-20T21:14:28.483Z,20.90
2019-06-20T21:17:15.835Z,20.80
2019-06-20T21:20:01.847Z,20.70
2019-06-20T21:22:49.066Z,20.70
2019-06-20T21:25:36.459Z,20.70
2019-06-20T21:28:23.546Z,20.70
2019-06-20T21:31:11.590Z,20.70
2019-06-20T21:33:58.962Z,20.60
2019-06-20T21:36:46.335Z,20.70
2019-06-20T21:39:33.420Z,20.70
2019-06-20T21:42:20.467Z,20.60
2019-06-20T21:45:06.666Z,20.60
2019-06-20T21:47:53.758Z,20.70
2019-06-20T21:50:41.095Z,20.60
2019-06-20T21:53:28.088Z,20.30
2019-06-20T21:56:15.226Z,20.20
2019-06-20T21:59:02.372Z,20.30
2019-06-20T22:01:49.542Z,20.30
2019-06-20T22:04:36.640Z,20.30
2019-06-20T22:07:24.152Z,20.30
2019-06-20T22:10:11.729Z,20.30
2019-06-20T22:12:59.091Z,20.30
2019-06-20T22:15:45.918Z,20.20
2019-06-20T22:18:33.120Z,20.00
2019-06-20T22:21:20.188Z,20.00
2019-06-20T22:24:07.285Z,19.90
2019-06-20T22:26:54.454Z,19.80
2019-06-20T22:29:41.476Z,19.80
2019-06-20T22:32:28.834Z,19.90
2019-06-20T22:35:15.940Z,19.90
2019-06-20T22:38:03.091Z,20.00
2019-06-20T22:40:51.229Z,19.80
2019-06-20T22:43:38.259Z,19.80
2019-06-20T22:46:25.470Z,19.80
2019-06-20T22:49:12.226Z,19.80
2019-06-20T22:51:59.482Z,19.80
2019-06-20T22:54:46.353Z,19.60
2019-06-20T22:57:33.651Z,19.50
2019-06-20T23:00:21.490Z,19.50
2019-06-20T23:03:09.030Z,19.50
2019-06-20T23:05:56.925Z,19.50
2019-06-20T23:08:44.281Z,19.60
2019-06-20T23:11:31.277Z,19.60
2019-06-20T23:14:18.567Z,19.60
2019-06-20T23:17:04.669Z,19.50
2019-06-20T23:19:51.795Z,19.30
2019-06-20T23:22:39.362Z,19.10
2019-06-20T23:25:26.324Z,19.10
2019-06-20T23:28:13.394Z,19.00
2019-06-20T23:31:00.474Z,19.00
2019-06-20T23:33:47.618Z,19.00
2019-06-20T23:36:34.635Z,18.90
2019-06-20T23:39:21.730Z,18.90
2019-06-20T23:42:09.261Z,18.90
2019-06-20T23:44:55.190Z,18.90
2019-06-20T23:47:42.009Z,18.80
2019-06-20T23:50:29.438Z,18.80
2019-06-20T23:53:22.794Z,18.80
2019-06-20T23:56:09.721Z,18.80
2019-06-20T23:58:56.858Z,18.80
